Rib Lake, Wisconsin
Current Conditions -  °F | °C
As of 10:35 AM on Friday 31 Oct 2014 (Local Time) from KMDZ Reporting Station
Overcast Overcast  
Wind Chill: 19°   Ceiling: 3400
Heat Index: 31°   Visibility: 10mi
Dew Point: 20°   Wind: 21mph
Humidity: 62%   Direction: 10°N
Pressure: 30.39"   Gusts: 31mph
Location:  45.32°N, 90.21°W
Report Text: KMDZ 311535Z AUTO 01018G27KT 10SM OVC034 00/M07 A3039 RMK AO2 T10031067
Loading
Personal Weather Stations






























Interactive Weather Map
Tropical Storm Tracking
New forecast layout! Learn more

10-Day Weather Forecast

Advertisements
Track Severe Weather on mobile